Cantua Creek, CA

5:28 PM PDT on August 27, 2014 (GMT -0700)
MAP MENDOTA (P304) CA PSD | Change Station
CLOSE
Current Station
Personal Weather Station
Location: Mendota, CA
Elevation: 164 ft
Nearby Weather Stations

Elev 164 ft 36.74 °N, 120.36 °W | Updated 28 minutes ago

Clear
Clear
97 °F
Feels Like 93 °F
N
11
Wind Variable Wind from North
Gusts 0.0 mph

Today
High -- | Low -- °F
--% Chance of Precip.
Yesterday
High -- | Low -- °F
Precip. -- in
6:28 AM 7:36 PM
Waxing Crescent, 5% visible
Pressure 29.93 in
Visibility 10.0 miles
Clouds Clear
Heat Index 93 °F
Dew Point 45 °F
Humidity 17%
Rainfall -999.00 in
Snow Depth Not available.
UV 3 out of 12
Pollen 8.90 out of 12
Air Quality Not available.
Flu Activity Not available.
METAR KNLC 272356Z VRB05KT 10SM CLR 36/09 A2993 RMK AO2 SLP134 RH/19 T03610089 10361 20300

More Conditions Fewer Conditions

Pressure 29.93 in
Visibility 10.0 miles
Clouds Clear
Heat Index 93 °F
Dew Point 45 °F
Humidity 17%
Rainfall -999.00 in
Snow Depth Not available.
UV 3 out of 12
Pollen 8.90 out of 12
Air Quality Not available.
Flu Activity Not available.
METAR KNLC 272356Z VRB05KT 10SM CLR 36/09 A2993 RMK AO2 SLP134 RH/19 T03610089 10361 20300

More Conditions Fewer Conditions

10-Day Weather Forecast

Almanac

Astronomy

Aug. 27, 2014 Rise Set
Actual Time 6:28 AM PDT 7:36 PM PDT
Civil Twilight 6:02 AM PDT 8:02 PM PDT
Nautical Twilight 5:30 AM PDT 8:34 PM PDT
Astronomical Twilight 4:57 AM PDT 9:07 PM PDT
Moon 8:25 AM PDT (8/27) 8:36 PM PDT (8/27)
Length of Visible Light 14h 00m
Length of Day
13h 07m
Tomorrow will be 2m 12s shorter.
Waxing Crescent, 5% of the Moon is Illuminated
Today
Waxing Crescent
Sep 2
First Quarter
Sep 8
Full
Sep 15
Last Quarter
Sep 24
New

Today's Extremes

State Highs State Lows

Community

WunderPhotos

Upload Photos

1,747,829 photos uploaded!

Nearby

Snow Depth

Station Depth Elevation
Leavitt Meadows 0 in 7200 ft
Summit Meadow 0 in 9122 ft
Hagan's Meadow 0 in 8000 ft
CSS Lab 0 in 6900 ft
Adin Mountain 0 in 6200 ft

Earthquake Activity

City Distance Mag. Time & Date
Soledad, California 42 miles 2.6 12:15 PM PDT
2014-08-26
Napa, California 161 miles 3.0 6:45 AM PDT
2014-08-26
American Canyon, California 157 miles 2.8 6:12 AM PDT
2014-08-26
American Canyon, California 157 miles 2.7 5:35 AM PDT
2014-08-26
Minimum magnitude displayed is 2.5.

Coastal Water Temperatures

Place Temperature
No Stations Reporting

Nearby Weather Stations